createdAt,value
2022-08-30T00:02:02.413Z,99183.91
2022-08-30T00:04:29.716Z,99196.56
2022-08-30T00:06:58.444Z,99194.06
2022-08-30T00:09:25.898Z,99191.53
2022-08-30T00:11:53.118Z,99191.53
2022-08-30T00:14:20.784Z,99184.91
2022-08-30T00:16:48.020Z,99180.88
2022-08-30T00:19:15.299Z,99185.38
2022-08-30T00:21:42.598Z,99197.53
2022-08-30T00:24:09.930Z,99196.53
2022-08-30T00:26:37.254Z,99178.91
2022-08-30T00:29:04.645Z,99177.41
2022-08-30T00:31:32.064Z,99187.22
2022-08-30T00:34:01.635Z,99184.19
2022-08-30T00:36:29.021Z,99180.53
2022-08-30T00:38:56.776Z,99196.06
2022-08-30T00:41:24.249Z,99199.41
2022-08-30T00:43:52.590Z,99178.25
2022-08-30T00:46:19.725Z,99194.53
2022-08-30T00:48:49.650Z,99169.72
2022-08-30T00:51:17.599Z,99194.53
2022-08-30T00:53:51.109Z,99190.88
2022-08-30T00:56:20.030Z,99175.56
2022-08-30T00:58:50.787Z,99173.41
2022-08-30T01:01:19.568Z,99168.22
2022-08-30T01:04:15.235Z,99187.41
2022-08-30T01:06:42.436Z,99170.56
2022-08-30T01:09:09.693Z,99185.41
2022-08-30T01:11:38.372Z,99159.94
2022-08-30T01:14:07.918Z,99183.53
2022-08-30T01:16:36.349Z,99179.41
2022-08-30T01:19:04.577Z,99172.56
2022-08-30T01:21:48.454Z,99182.69
2022-08-30T01:24:17.956Z,99167.03
2022-08-30T01:26:45.679Z,99153.91
2022-08-30T01:29:17.330Z,99150.28
2022-08-30T01:31:44.576Z,99175.22
2022-08-30T01:34:12.670Z,99170.56
2022-08-30T01:36:45.013Z,99143.56
2022-08-30T01:39:15.815Z,99160.56
2022-08-30T01:41:43.804Z,99167.41
2022-08-30T01:44:13.945Z,99177.22
2022-08-30T01:46:46.314Z,99176.91
2022-08-30T01:49:16.373Z,99167.41
2022-08-30T01:51:44.114Z,99159.75
2022-08-30T01:54:12.783Z,99181.72
2022-08-30T01:56:40.558Z,99169.38
2022-08-30T01:59:08.039Z,99177.22
2022-08-30T02:01:37.242Z,99182.03
2022-08-30T02:04:08.163Z,99175.53
2022-08-30T02:06:35.524Z,99171.25
2022-08-30T02:09:02.898Z,99157.25
2022-08-30T02:11:30.185Z,99152.75
2022-08-30T02:18:04.664Z,99166.25
2022-08-30T02:20:32.109Z,99158.75
2022-08-30T02:23:01.414Z,99157.41
2022-08-30T02:25:28.912Z,99163.91
2022-08-30T02:27:58.719Z,99176.59
2022-08-30T02:30:26.082Z,99179.41
2022-08-30T02:32:54.591Z,99162.59
2022-08-30T02:35:23.713Z,99182.94
2022-08-30T02:37:51.101Z,99164.13
2022-08-30T02:40:19.109Z,99181.56
2022-08-30T02:42:46.446Z,99198.25
2022-08-30T02:45:15.446Z,99184.56
2022-08-30T02:47:46.985Z,99161.78
2022-08-30T02:50:15.545Z,99194.56
2022-08-30T02:52:43.121Z,99192.91
2022-08-30T02:55:19.077Z,99194.56
2022-08-30T02:57:46.827Z,99197.56
2022-08-30T03:00:17.375Z,99171.59
2022-08-30T03:02:46.273Z,99199.25
2022-08-30T03:05:15.719Z,99183.91
2022-08-30T03:07:43.630Z,99194.25
2022-08-30T03:10:11.596Z,99189.25
2022-08-30T03:12:42.128Z,99178.91
2022-08-30T03:15:15.224Z,99187.09
2022-08-30T03:17:42.905Z,99196.91
2022-08-30T03:20:10.860Z,99204.56
2022-08-30T03:22:38.429Z,99189.56
2022-08-30T03:25:06.677Z,99180.06
2022-08-30T03:27:34.042Z,99186.06
2022-08-30T03:30:01.301Z,99174.25
2022-08-30T03:32:28.856Z,99175.22
2022-08-30T03:34:56.182Z,99191.41
2022-08-30T03:37:27.367Z,99191.75
2022-08-30T03:39:55.227Z,99192.22
2022-08-30T03:42:22.475Z,99169.41
2022-08-30T03:44:52.563Z,99195.72
2022-08-30T03:47:20.858Z,99199.56
2022-08-30T03:49:48.102Z,99186.34
2022-08-30T03:52:15.484Z,99181.19
2022-08-30T03:54:43.716Z,99198.50
2022-08-30T03:57:20.156Z,99199.53
2022-08-30T03:59:52.007Z,99180.69
2022-08-30T04:02:19.582Z,99173.34
2022-08-30T04:04:47.372Z,99174.53
2022-08-30T04:07:14.694Z,99200.97
2022-08-30T04:09:42.077Z,99199.47
2022-08-30T04:12:09.577Z,99207.13
2022-08-30T04:14:37.121Z,99202.50
2022-08-30T04:17:04.794Z,99206.16
2022-08-30T04:19:32.022Z,99209.50
2022-08-30T04:21:59.391Z,99213.84
2022-08-30T04:24:28.979Z,99209.34
2022-08-30T04:26:56.172Z,99215.31
2022-08-30T04:29:23.451Z,99220.13
2022-08-30T04:31:50.880Z,99213.81
2022-08-30T04:34:18.495Z,99215.09
2022-08-30T04:36:49.702Z,99228.25
2022-08-30T04:39:19.198Z,99203.13
2022-08-30T04:41:46.550Z,99211.06
2022-08-30T04:44:19.192Z,99214.88
2022-08-30T04:46:47.156Z,99196.75
2022-08-30T04:49:17.067Z,99205.69
2022-08-30T04:51:48.015Z,99189.81
2022-08-30T04:54:15.478Z,99184.97
2022-08-30T04:56:43.934Z,99195.50
2022-08-30T04:59:11.498Z,99211.03
2022-08-30T05:01:45.729Z,99192.03
2022-08-30T05:04:15.518Z,99202.19
2022-08-30T05:06:45.764Z,99198.41
2022-08-30T05:09:13.230Z,99170.38
2022-08-30T05:11:40.701Z,99196.19
2022-08-30T05:14:11.403Z,99192.09
2022-08-30T05:16:39.618Z,99196.63
2022-08-30T05:19:08.313Z,99198.44
2022-08-30T05:21:37.471Z,99204.75
2022-08-30T05:24:06.055Z,99211.34
2022-08-30T05:26:40.594Z,99211.81
2022-08-30T05:29:08.049Z,99186.97
2022-08-30T05:31:36.899Z,99217.75
2022-08-30T05:34:05.682Z,99184.38
2022-08-30T05:36:39.459Z,99185.53
2022-08-30T05:39:09.324Z,99203.66
2022-08-30T05:41:38.181Z,99219.69
2022-08-30T05:44:08.613Z,99182.56
2022-08-30T05:46:37.122Z,99205.25
2022-08-30T05:49:08.824Z,99211.84
2022-08-30T05:51:43.324Z,99212.16
2022-08-30T05:54:14.003Z,99214.59
2022-08-30T05:56:43.234Z,99222.22
2022-08-30T05:59:10.274Z,99216.16
2022-08-30T06:01:43.973Z,99210.31
2022-08-30T06:04:13.655Z,99221.75
2022-08-30T06:06:42.936Z,99222.13
2022-08-30T06:09:11.785Z,99235.63
2022-08-30T06:11:39.227Z,99215.59
2022-08-30T06:14:07.903Z,99221.31
2022-08-30T06:16:39.001Z,99217.59
2022-08-30T06:19:11.253Z,99215.56
2022-08-30T06:21:39.927Z,99214.72
2022-08-30T06:24:09.372Z,99231.03
2022-08-30T06:26:41.475Z,99231.41
2022-08-30T06:29:11.817Z,99235.22
2022-08-30T06:31:39.169Z,99231.06
2022-08-30T06:34:07.829Z,99236.47
2022-08-30T06:36:37.635Z,99227.66
2022-08-30T06:39:06.155Z,99221.84
2022-08-30T06:41:36.960Z,99231.28
2022-08-30T06:44:10.534Z,99229.28
2022-08-30T06:46:39.388Z,99223.97
2022-08-30T06:49:07.975Z,99221.34
2022-08-30T06:51:38.505Z,99232.13
2022-08-30T06:54:10.679Z,99227.63
2022-08-30T06:56:55.193Z,99234.06
2022-08-30T06:59:43.769Z,99230.31
2022-08-30T07:02:13.584Z,99233.44
2022-08-30T07:04:41.088Z,99228.94
2022-08-30T07:07:11.282Z,99227.13
2022-08-30T07:09:43.386Z,99236.53
2022-08-30T07:12:12.064Z,99228.28
2022-08-30T07:14:41.367Z,99234.72
2022-08-30T07:17:31.277Z,99237.66
2022-08-30T07:20:02.291Z,99237.34
2022-08-30T07:22:29.634Z,99237.56
2022-08-30T07:24:56.978Z,99229.56
2022-08-30T07:27:24.062Z,99215.91
2022-08-30T07:29:51.470Z,99248.03
2022-08-30T07:32:18.711Z,99244.28
2022-08-30T07:34:45.930Z,99240.75
2022-08-30T07:37:18.054Z,99237.88
2022-08-30T07:39:48.024Z,99247.75
2022-08-30T07:42:16.687Z,99228.25
2022-08-30T07:44:44.760Z,99242.22
2022-08-30T07:47:12.134Z,99241.00
2022-08-30T07:49:39.329Z,99229.25
2022-08-30T07:52:06.433Z,99237.75
2022-08-30T07:54:33.832Z,99247.03
2022-08-30T07:57:01.305Z,99240.25
2022-08-30T07:59:30.851Z,99229.63
2022-08-30T08:02:01.685Z,99228.81
2022-08-30T08:04:30.139Z,99237.78
2022-08-30T08:06:57.262Z,99237.41
2022-08-30T08:09:24.416Z,99242.25
2022-08-30T08:11:51.682Z,99242.25
2022-08-30T08:14:18.921Z,99222.72
2022-08-30T08:16:46.852Z,99238.22
2022-08-30T08:19:14.187Z,99225.66
2022-08-30T08:21:42.154Z,99237.63
2022-08-30T08:24:09.744Z,99232.69
2022-08-30T08:26:38.491Z,99233.50
2022-08-30T08:29:10.180Z,99229.28
2022-08-30T08:31:38.352Z,99238.25
2022-08-30T08:34:06.670Z,99238.63
2022-08-30T08:36:35.728Z,99236.13
2022-08-30T08:39:06.202Z,99223.19
2022-08-30T08:41:52.190Z,99224.03
2022-08-30T08:44:34.864Z,99226.63
2022-08-30T08:47:22.665Z,99222.75
2022-08-30T08:49:55.503Z,99231.16
2022-08-30T08:53:13.393Z,99230.63
2022-08-30T08:55:51.564Z,99228.41
2022-08-30T08:58:29.684Z,99231.31
2022-08-30T09:00:59.224Z,99237.81
2022-08-30T09:03:29.694Z,99230.72
2022-08-30T09:05:59.284Z,99223.56
2022-08-30T09:08:27.576Z,99230.81
2022-08-30T09:11:00.680Z,99238.88
2022-08-30T09:13:28.531Z,99225.00
2022-08-30T09:15:59.540Z,99232.41
2022-08-30T09:18:51.278Z,99233.00
2022-08-30T09:21:27.622Z,99234.72
2022-08-30T09:23:59.438Z,99228.72
2022-08-30T09:26:36.305Z,99235.72
2022-08-30T09:29:05.853Z,99245.25
2022-08-30T09:31:47.693Z,99246.38
2022-08-30T09:34:21.021Z,99237.97
2022-08-30T09:36:54.044Z,99238.00
2022-08-30T09:39:30.414Z,99224.88
2022-08-30T09:42:14.915Z,99239.09
2022-08-30T09:44:43.411Z,99240.09
2022-08-30T09:47:24.191Z,99245.06
2022-08-30T09:50:14.914Z,99241.25
2022-08-30T09:53:10.130Z,99250.16
2022-08-30T09:55:55.223Z,99246.34
2022-08-30T09:58:36.508Z,99238.41
2022-08-30T10:01:07.106Z,99240.66
2022-08-30T10:03:48.951Z,99233.31
2022-08-30T10:06:36.525Z,99235.47
2022-08-30T10:09:28.962Z,99247.63
2022-08-30T10:12:17.473Z,99233.22
2022-08-30T10:15:17.517Z,99237.47
2022-08-30T10:17:55.292Z,99233.50
2022-08-30T10:20:43.712Z,99246.06
2022-08-30T10:23:20.291Z,99246.97
2022-08-30T10:26:11.970Z,99236.06
2022-08-30T10:29:27.051Z,99233.66
2022-08-30T10:32:01.872Z,99232.41
2022-08-30T10:34:56.024Z,99230.47
2022-08-30T10:37:28.907Z,99248.72
2022-08-30T10:40:25.759Z,99217.19
2022-08-30T10:42:56.752Z,99235.69
2022-08-30T10:45:27.397Z,99223.38
2022-08-30T10:47:57.725Z,99233.13
2022-08-30T10:50:33.866Z,99233.13
2022-08-30T10:53:32.467Z,99239.78
2022-08-30T10:56:09.409Z,99237.09
2022-08-30T10:58:43.552Z,99224.13
2022-08-30T11:01:36.591Z,99239.91
2022-08-30T11:05:00.686Z,99230.00
2022-08-30T11:07:28.132Z,99232.28
2022-08-30T11:10:41.179Z,99229.88
2022-08-30T11:13:32.088Z,99209.53
2022-08-30T11:16:15.587Z,99225.38
2022-08-30T11:18:51.131Z,99229.63
2022-08-30T11:21:21.863Z,99223.31
2022-08-30T11:24:22.136Z,99232.66
2022-08-30T11:26:49.604Z,99232.78
2022-08-30T11:29:41.997Z,99218.50
2022-08-30T11:32:12.607Z,99224.50
2022-08-30T11:34:46.750Z,99223.63
2022-08-30T11:37:46.809Z,99219.38
2022-08-30T11:40:20.011Z,99223.34
2022-08-30T11:42:49.781Z,99233.19
2022-08-30T11:45:25.423Z,99221.22
2022-08-30T11:48:04.560Z,99213.91
2022-08-30T11:50:48.679Z,99225.69
2022-08-30T11:53:29.648Z,99228.47
2022-08-30T11:56:12.195Z,99218.63
2022-08-30T11:58:52.651Z,99219.00
2022-08-30T12:01:50.507Z,99214.06
2022-08-30T12:04:27.980Z,99212.59
2022-08-30T12:07:04.326Z,99196.75
2022-08-30T12:09:33.206Z,99203.81
2022-08-30T12:12:32.705Z,99196.97
2022-08-30T12:15:00.556Z,99186.47
2022-08-30T12:18:10.412Z,99188.88
2022-08-30T12:20:47.312Z,99184.84
2022-08-30T12:23:29.635Z,99178.75
2022-08-30T12:26:32.055Z,99178.88
2022-08-30T12:29:24.520Z,99179.72
2022-08-30T12:32:05.388Z,99176.16
2022-08-30T12:34:40.532Z,99183.53
2022-08-30T12:37:23.419Z,99187.50
2022-08-30T12:40:12.362Z,99172.75
2022-08-30T12:42:43.233Z,99178.25
2022-08-30T12:45:16.307Z,99170.72
2022-08-30T12:48:17.751Z,99177.13
2022-08-30T12:50:53.819Z,99165.59
2022-08-30T12:53:34.845Z,99167.69
2022-08-30T12:56:11.592Z,99164.78
2022-08-30T12:58:41.809Z,99165.91
2022-08-30T13:01:36.223Z,99171.78
2022-08-30T13:04:22.178Z,99167.41
2022-08-30T13:06:55.289Z,99166.31
2022-08-30T13:09:27.562Z,99154.25
2022-08-30T13:12:02.124Z,99134.75
2022-08-30T13:14:42.444Z,99153.72
2022-08-30T13:17:20.381Z,99151.13
2022-08-30T13:20:06.109Z,99153.63
2022-08-30T13:22:42.309Z,99155.50
2022-08-30T13:25:11.756Z,99144.91
2022-08-30T13:27:40.266Z,99156.13
2022-08-30T13:30:13.538Z,99156.50
2022-08-30T13:32:42.738Z,99135.78
2022-08-30T13:35:12.104Z,99146.03
2022-08-30T13:37:49.583Z,99168.84
2022-08-30T13:40:20.815Z,99162.22
2022-08-30T13:42:48.725Z,99161.75
2022-08-30T13:48:10.504Z,99154.63
2022-08-30T13:50:38.473Z,99141.09
2022-08-30T13:53:06.011Z,99154.13
2022-08-30T13:55:36.549Z,99144.97
2022-08-30T13:58:03.690Z,99137.09
2022-08-30T14:00:36.244Z,99143.72
2022-08-30T14:03:05.380Z,99145.84
2022-08-30T14:06:05.240Z,99136.53
2022-08-30T14:11:18.710Z,99127.03
2022-08-30T14:16:40.196Z,99118.72
2022-08-30T14:19:09.684Z,99126.13
2022-08-30T14:21:36.777Z,99117.78
2022-08-30T14:24:06.652Z,99114.06
2022-08-30T14:26:40.438Z,99103.56
2022-08-30T14:29:10.898Z,99107.78
2022-08-30T14:31:39.547Z,99102.03
2022-08-30T14:34:08.498Z,99108.09
2022-08-30T14:36:37.453Z,99125.97
2022-08-30T14:39:08.775Z,99121.50
2022-08-30T14:41:43.585Z,99123.94
2022-08-30T14:44:14.282Z,99125.81
2022-08-30T14:46:42.847Z,99120.41
2022-08-30T14:49:11.247Z,99117.25
2022-08-30T14:51:38.852Z,99132.25
2022-08-30T14:54:07.349Z,99120.84
2022-08-30T14:56:36.829Z,99110.50
2022-08-30T14:59:04.018Z,99113.84
2022-08-30T15:01:32.400Z,99120.72
2022-08-30T15:04:06.165Z,99124.38
2022-08-30T15:06:36.483Z,99118.25
2022-08-30T15:09:05.789Z,99117.59
2022-08-30T15:11:33.912Z,99108.22
2022-08-30T15:14:01.902Z,99099.59
2022-08-30T15:16:32.020Z,99100.06
2022-08-30T15:18:59.871Z,99122.19
2022-08-30T15:21:30.922Z,99126.31
2022-08-30T15:24:01.251Z,99122.03
2022-08-30T15:26:28.661Z,99118.13
2022-08-30T15:28:56.795Z,99122.72
2022-08-30T15:31:28.403Z,99121.03
2022-08-30T15:33:56.657Z,99118.56
2022-08-30T15:36:25.012Z,99119.41
2022-08-30T15:38:55.988Z,99120.28
2022-08-30T15:41:24.107Z,99119.84
2022-08-30T15:43:52.948Z,99122.78
2022-08-30T15:46:29.379Z,99116.78
2022-08-30T15:49:00.815Z,99117.00
2022-08-30T15:51:28.601Z,99113.69
2022-08-30T15:54:03.892Z,99104.38
2022-08-30T15:56:32.833Z,99110.59
2022-08-30T15:59:00.244Z,99118.66
2022-08-30T16:01:30.299Z,99110.81
2022-08-30T16:03:59.976Z,99114.94
2022-08-30T16:06:34.941Z,99114.34
2022-08-30T16:09:03.816Z,99111.22
2022-08-30T16:11:32.222Z,99101.47
2022-08-30T16:13:59.594Z,99109.75
2022-08-30T16:16:27.043Z,99100.25
2022-08-30T16:18:55.258Z,99097.56
2022-08-30T16:21:27.232Z,99095.09
2022-08-30T16:23:57.364Z,99103.34
2022-08-30T16:26:25.442Z,99097.16
2022-08-30T16:28:53.329Z,99103.75
2022-08-30T16:31:21.580Z,99091.78
2022-08-30T16:33:52.525Z,99105.41
2022-08-30T16:36:21.605Z,99105.84
2022-08-30T16:38:49.839Z,99109.97
2022-08-30T16:41:22.694Z,99101.91
2022-08-30T16:44:17.950Z,99106.69
2022-08-30T16:46:52.651Z,99112.66
2022-08-30T16:49:22.760Z,99069.00
2022-08-30T16:51:50.922Z,99099.44
2022-08-30T16:54:23.284Z,99086.34
2022-08-30T16:56:50.996Z,99081.81
2022-08-30T16:59:18.936Z,99098.59
2022-08-30T17:01:46.612Z,99084.91
2022-08-30T17:04:19.232Z,99112.66
2022-08-30T17:06:50.711Z,99098.38
2022-08-30T17:09:19.296Z,99091.31
2022-08-30T17:11:48.105Z,99092.97
2022-08-30T17:14:22.907Z,99083.44
2022-08-30T17:16:56.647Z,99101.22
2022-08-30T17:19:26.825Z,99092.34
2022-08-30T17:21:57.990Z,99065.66
2022-08-30T17:24:27.953Z,99065.25
2022-08-30T17:26:55.749Z,99080.13
2022-08-30T17:29:22.970Z,99085.09
2022-08-30T17:31:51.720Z,99073.88
2022-08-30T17:34:21.913Z,99072.44
2022-08-30T17:36:50.314Z,99082.16
2022-08-30T17:39:18.331Z,99081.13
2022-08-30T17:41:50.780Z,99078.06
2022-08-30T17:44:25.519Z,99061.88
2022-08-30T17:46:54.686Z,99082.34
2022-08-30T17:49:22.933Z,99059.34
2022-08-30T17:51:55.678Z,99064.16
2022-08-30T17:54:25.942Z,99056.66
2022-08-30T17:56:54.794Z,99051.13
2022-08-30T17:59:24.895Z,99063.31
2022-08-30T18:01:55.175Z,99069.75
2022-08-30T18:04:24.915Z,99060.19
2022-08-30T18:06:52.853Z,99054.78
2022-08-30T18:09:23.368Z,99054.75
2022-08-30T18:11:51.043Z,99057.25
2022-08-30T18:14:18.831Z,99044.78
2022-08-30T18:16:49.832Z,99058.66
2022-08-30T18:19:24.874Z,99061.13
2022-08-30T18:21:53.188Z,99063.84
2022-08-30T18:24:22.141Z,99063.47
2022-08-30T18:26:49.725Z,99047.91
2022-08-30T18:29:25.990Z,99057.66
2022-08-30T18:31:59.231Z,99063.84
2022-08-30T18:34:28.722Z,99063.44
2022-08-30T18:36:56.633Z,99061.34
2022-08-30T18:39:24.033Z,99052.66
2022-08-30T18:41:54.371Z,99031.53
2022-08-30T18:44:29.644Z,99043.34
2022-08-30T18:47:03.684Z,99023.25
2022-08-30T18:49:32.299Z,99016.22
2022-08-30T18:52:00.849Z,99007.53
2022-08-30T18:54:29.976Z,99016.25
2022-08-30T18:56:57.277Z,99008.81
2022-08-30T18:59:35.706Z,99036.06
2022-08-30T19:02:06.432Z,99022.47
2022-08-30T19:04:35.531Z,99018.72
2022-08-30T19:07:06.929Z,99009.16
2022-08-30T19:09:35.170Z,99015.75
2022-08-30T19:12:07.826Z,99013.06
2022-08-30T19:14:39.745Z,99021.75
2022-08-30T19:17:08.302Z,99027.53
2022-08-30T19:19:48.845Z,99015.75
2022-08-30T19:22:19.858Z,99027.31
2022-08-30T19:24:50.234Z,99027.88
2022-08-30T19:27:21.324Z,99012.94
2022-08-30T19:29:53.549Z,99021.84
2022-08-30T19:32:22.193Z,99026.16
2022-08-30T19:34:50.153Z,99027.69
2022-08-30T19:37:18.719Z,99027.25
2022-08-30T19:39:46.657Z,98996.00
2022-08-30T19:42:14.424Z,98995.41
2022-08-30T19:44:42.075Z,99032.63
2022-08-30T19:47:10.828Z,99011.09
2022-08-30T19:49:38.217Z,99022.72
2022-08-30T19:52:05.417Z,99004.88
2022-08-30T19:54:34.763Z,99017.31
2022-08-30T19:57:02.105Z,99018.44
2022-08-30T19:59:29.550Z,99007.81
2022-08-30T20:01:56.922Z,99029.91
2022-08-30T20:04:25.789Z,99039.00
2022-08-30T20:06:54.346Z,99042.47
2022-08-30T20:09:25.292Z,99040.56
2022-08-30T20:11:55.066Z,99042.41
2022-08-30T20:14:24.056Z,99014.34
2022-08-30T20:16:53.523Z,99019.38
2022-08-30T20:19:21.855Z,99016.91
2022-08-30T20:21:54.746Z,99011.94
2022-08-30T20:24:31.864Z,99034.00
2022-08-30T20:26:59.540Z,99016.50
2022-08-30T20:29:26.820Z,99030.81
2022-08-30T20:31:54.112Z,99040.09
2022-08-30T20:34:27.375Z,99043.63
2022-08-30T20:36:58.727Z,99033.84
2022-08-30T20:39:26.001Z,99020.34
2022-08-30T20:41:53.298Z,99030.53
2022-08-30T20:44:20.750Z,99025.69
2022-08-30T20:46:50.632Z,99039.28
2022-08-30T20:49:19.784Z,99039.47
2022-08-30T20:51:52.842Z,99028.81
2022-08-30T20:54:22.590Z,99043.28
2022-08-30T20:56:51.656Z,99041.25
2022-08-30T20:59:18.968Z,99038.38
2022-08-30T21:01:48.346Z,99028.63
2022-08-30T21:04:17.749Z,99032.16
2022-08-30T21:06:45.022Z,99010.97
2022-08-30T21:09:12.182Z,99032.16
2022-08-30T21:11:39.456Z,99028.28
2022-08-30T21:14:12.307Z,99033.00
2022-08-30T21:16:39.976Z,99035.88
2022-08-30T21:19:07.320Z,99017.50
2022-08-30T21:21:34.650Z,99021.66
2022-08-30T21:24:10.055Z,99008.47
2022-08-30T21:26:39.905Z,99033.06
2022-08-30T21:29:07.954Z,99032.16
2022-08-30T21:31:39.969Z,99024.78
2022-08-30T21:34:07.647Z,99014.63
2022-08-30T21:36:47.081Z,99014.19
2022-08-30T21:39:26.765Z,99010.88
2022-08-30T21:41:57.088Z,98982.03
2022-08-30T21:44:27.061Z,98995.66
2022-08-30T21:46:55.146Z,99008.50
2022-08-30T21:49:25.182Z,99013.56
2022-08-30T21:51:53.890Z,98978.56
2022-08-30T21:54:22.666Z,98997.44
2022-08-30T21:56:51.669Z,99019.38
2022-08-30T21:59:20.211Z,98997.28
2022-08-30T22:01:48.778Z,99013.13
2022-08-30T22:04:17.078Z,98979.03
2022-08-30T22:06:48.331Z,98999.34
2022-08-30T22:09:17.391Z,98995.09
2022-08-30T22:11:45.785Z,98991.97
2022-08-30T22:14:15.301Z,98993.25
2022-08-30T22:16:43.375Z,98991.31
2022-08-30T22:19:11.721Z,98983.06
2022-08-30T22:21:42.072Z,98986.47
2022-08-30T22:24:10.135Z,98987.00
2022-08-30T22:26:38.393Z,98980.81
2022-08-30T22:29:06.993Z,98979.16
2022-08-30T22:31:34.739Z,98988.22
2022-08-30T22:34:02.850Z,98981.13
2022-08-30T22:36:35.294Z,98991.34
2022-08-30T22:39:05.103Z,98994.13
2022-08-30T22:41:34.336Z,98988.25
2022-08-30T22:44:02.504Z,98954.66
2022-08-30T22:46:33.716Z,98976.31
2022-08-30T22:49:02.487Z,98985.22
2022-08-30T22:51:29.928Z,98970.69
2022-08-30T22:53:57.641Z,98980.06
2022-08-30T22:56:26.365Z,98972.47
2022-08-30T22:58:54.796Z,98992.69
2022-08-30T23:01:32.042Z,98986.22
2022-08-30T23:05:25.923Z,98982.88
2022-08-30T23:07:56.100Z,98993.56
2022-08-30T23:10:28.241Z,99006.91
2022-08-30T23:12:56.708Z,98990.53
2022-08-30T23:15:27.934Z,98991.09
2022-08-30T23:17:55.150Z,99005.78
2022-08-30T23:20:23.678Z,99002.69
2022-08-30T23:23:03.011Z,99006.91
2022-08-30T23:25:52.069Z,98989.56
2022-08-30T23:28:39.594Z,98993.13
2022-08-30T23:31:34.892Z,99009.34
2022-08-30T23:34:22.152Z,98998.84
2022-08-30T23:37:07.936Z,98998.09
2022-08-30T23:39:53.480Z,99000.13
2022-08-30T23:42:38.981Z,98994.50
2022-08-30T23:45:25.188Z,98972.34
2022-08-30T23:48:10.811Z,98997.28
2022-08-30T23:50:56.400Z,98996.47
2022-08-30T23:53:43.672Z,98978.56
2022-08-30T23:56:32.734Z,99001.19
2022-08-30T23:59:18.322Z,98992.09
